sensor_id;sensor_type;location;lat;lon;timestamp;P1;durP1;ratioP1;P2;durP2;ratioP2
71629;SDS011;59479;51.902;8.212;2023-02-28T00:00:44;8.13;;;3.50;;
71629;SDS011;59479;51.902;8.212;2023-02-28T00:03:09;6.50;;;3.27;;
71629;SDS011;59479;51.902;8.212;2023-02-28T00:05:35;5.13;;;2.90;;
71629;SDS011;59479;51.902;8.212;2023-02-28T00:08:00;6.63;;;3.50;;
71629;SDS011;59479;51.902;8.212;2023-02-28T00:10:29;5.85;;;3.28;;
71629;SDS011;59479;51.902;8.212;2023-02-28T00:12:56;5.18;;;3.05;;
71629;SDS011;59479;51.902;8.212;2023-02-28T00:15:25;5.00;;;3.05;;
71629;SDS011;59479;51.902;8.212;2023-02-28T00:17:50;7.13;;;3.22;;
71629;SDS011;59479;51.902;8.212;2023-02-28T00:20:16;6.47;;;3.53;;
71629;SDS011;59479;51.902;8.212;2023-02-28T00:22:43;6.70;;;3.43;;
71629;SDS011;59479;51.902;8.212;2023-02-28T00:25:10;6.45;;;3.03;;
71629;SDS011;59479;51.902;8.212;2023-02-28T00:27:38;7.60;;;3.88;;
71629;SDS011;59479;51.902;8.212;2023-02-28T00:30:04;6.10;;;3.35;;
71629;SDS011;59479;51.902;8.212;2023-02-28T00:32:31;6.90;;;3.55;;
71629;SDS011;59479;51.902;8.212;2023-02-28T00:34:57;6.00;;;3.10;;
71629;SDS011;59479;51.902;8.212;2023-02-28T00:37:23;6.22;;;3.03;;
71629;SDS011;59479;51.902;8.212;2023-02-28T00:39:49;6.20;;;3.60;;
71629;SDS011;59479;51.902;8.212;2023-02-28T00:42:14;4.73;;;2.87;;
71629;SDS011;59479;51.902;8.212;2023-02-28T00:44:39;6.60;;;3.40;;
71629;SDS011;59479;51.902;8.212;2023-02-28T00:47:04;6.72;;;3.58;;
71629;SDS011;59479;51.902;8.212;2023-02-28T00:49:30;6.93;;;3.00;;
71629;SDS011;59479;51.902;8.212;2023-02-28T00:51:55;9.27;;;3.87;;
71629;SDS011;59479;51.902;8.212;2023-02-28T00:54:21;5.93;;;3.83;;
71629;SDS011;59479;51.902;8.212;2023-02-28T00:56:47;6.72;;;3.70;;
71629;SDS011;59479;51.902;8.212;2023-02-28T00:59:13;7.00;;;3.90;;
71629;SDS011;59479;51.902;8.212;2023-02-28T01:01:40;8.10;;;3.80;;
71629;SDS011;59479;51.902;8.212;2023-02-28T01:04:05;6.90;;;3.90;;
71629;SDS011;59479;51.902;8.212;2023-02-28T01:06:31;8.67;;;3.60;;
71629;SDS011;59479;51.902;8.212;2023-02-28T01:08:57;7.57;;;3.53;;
71629;SDS011;59479;51.902;8.212;2023-02-28T01:11:23;6.87;;;3.53;;
71629;SDS011;59479;51.902;8.212;2023-02-28T01:13:48;7.15;;;3.72;;
71629;SDS011;59479;51.902;8.212;2023-02-28T01:16:14;5.43;;;3.53;;
71629;SDS011;59479;51.902;8.212;2023-02-28T01:18:39;9.20;;;3.33;;
71629;SDS011;59479;51.902;8.212;2023-02-28T01:21:06;6.68;;;3.13;;
71629;SDS011;59479;51.902;8.212;2023-02-28T01:23:33;7.57;;;3.65;;
71629;SDS011;59479;51.902;8.212;2023-02-28T01:28:31;6.25;;;3.40;;
71629;SDS011;59479;51.902;8.212;2023-02-28T01:30:57;5.87;;;3.53;;
71629;SDS011;59479;51.902;8.212;2023-02-28T01:33:22;7.40;;;3.17;;
71629;SDS011;59479;51.902;8.212;2023-02-28T01:35:47;6.53;;;3.90;;
71629;SDS011;59479;51.902;8.212;2023-02-28T01:38:14;8.48;;;3.33;;
71629;SDS011;59479;51.902;8.212;2023-02-28T01:40:40;6.55;;;3.63;;
71629;SDS011;59479;51.902;8.212;2023-02-28T01:43:15;7.30;;;3.40;;
71629;SDS011;59479;51.902;8.212;2023-02-28T01:45:45;6.55;;;3.05;;
71629;SDS011;59479;51.902;8.212;2023-02-28T01:48:10;6.50;;;3.70;;
71629;SDS011;59479;51.902;8.212;2023-02-28T01:50:39;6.13;;;3.45;;
71629;SDS011;59479;51.902;8.212;2023-02-28T01:53:08;6.35;;;3.40;;
71629;SDS011;59479;51.902;8.212;2023-02-28T01:55:38;6.10;;;3.47;;
71629;SDS011;59479;51.902;8.212;2023-02-28T01:58:05;5.93;;;3.67;;
71629;SDS011;59479;51.902;8.212;2023-02-28T02:00:32;6.03;;;3.53;;
71629;SDS011;59479;51.902;8.212;2023-02-28T02:02:58;6.75;;;3.80;;
71629;SDS011;59479;51.902;8.212;2023-02-28T02:05:36;7.10;;;3.80;;
71629;SDS011;59479;51.902;8.212;2023-02-28T02:08:44;6.80;;;3.50;;
71629;SDS011;59479;51.902;8.212;2023-02-28T02:10:57;7.55;;;3.22;;
71629;SDS011;59479;51.902;8.212;2023-02-28T02:13:28;7.47;;;3.75;;
71629;SDS011;59479;51.902;8.212;2023-02-28T02:21:47;6.30;;;3.63;;
71629;SDS011;59479;51.902;8.212;2023-02-28T02:36:13;6.33;;;3.40;;
71629;SDS011;59479;51.902;8.212;2023-02-28T02:38:52;5.15;;;3.20;;
71629;SDS011;59479;51.902;8.212;2023-02-28T02:44:40;7.18;;;3.72;;
71629;SDS011;59479;51.902;8.212;2023-02-28T02:47:10;7.70;;;3.58;;
71629;SDS011;59479;51.902;8.212;2023-02-28T02:49:40;6.23;;;3.10;;
71629;SDS011;59479;51.902;8.212;2023-02-28T02:52:11;6.57;;;3.20;;
71629;SDS011;59479;51.902;8.212;2023-02-28T02:54:41;8.75;;;3.72;;
71629;SDS011;59479;51.902;8.212;2023-02-28T02:57:11;8.65;;;3.33;;
71629;SDS011;59479;51.902;8.212;2023-02-28T02:59:42;7.30;;;4.18;;
71629;SDS011;59479;51.902;8.212;2023-02-28T03:02:09;6.43;;;3.30;;
71629;SDS011;59479;51.902;8.212;2023-02-28T03:04:42;6.93;;;3.78;;
71629;SDS011;59479;51.902;8.212;2023-02-28T03:07:10;6.03;;;3.63;;
71629;SDS011;59479;51.902;8.212;2023-02-28T03:09:36;7.50;;;4.00;;
71629;SDS011;59479;51.902;8.212;2023-02-28T03:12:01;6.07;;;3.70;;
71629;SDS011;59479;51.902;8.212;2023-02-28T03:14:31;6.30;;;3.65;;
71629;SDS011;59479;51.902;8.212;2023-02-28T03:17:09;6.07;;;3.75;;
71629;SDS011;59479;51.902;8.212;2023-02-28T03:20:04;6.93;;;3.60;;
71629;SDS011;59479;51.902;8.212;2023-02-28T03:27:53;6.47;;;3.92;;
71629;SDS011;59479;51.902;8.212;2023-02-28T03:30:47;6.43;;;3.67;;
71629;SDS011;59479;51.902;8.212;2023-02-28T03:33:23;8.60;;;3.78;;
71629;SDS011;59479;51.902;8.212;2023-02-28T03:35:54;6.43;;;3.10;;
71629;SDS011;59479;51.902;8.212;2023-02-28T03:38:28;6.13;;;3.33;;
71629;SDS011;59479;51.902;8.212;2023-02-28T03:41:01;10.02;;;4.22;;
71629;SDS011;59479;51.902;8.212;2023-02-28T03:43:34;9.10;;;3.53;;
71629;SDS011;59479;51.902;8.212;2023-02-28T03:46:05;7.07;;;3.65;;
71629;SDS011;59479;51.902;8.212;2023-02-28T03:48:40;6.93;;;3.57;;
71629;SDS011;59479;51.902;8.212;2023-02-28T03:51:09;5.20;;;3.17;;
71629;SDS011;59479;51.902;8.212;2023-02-28T03:53:40;7.25;;;4.32;;
71629;SDS011;59479;51.902;8.212;2023-02-28T03:56:12;7.97;;;3.58;;
71629;SDS011;59479;51.902;8.212;2023-02-28T03:58:43;6.50;;;3.63;;
71629;SDS011;59479;51.902;8.212;2023-02-28T04:01:19;5.80;;;3.37;;
71629;SDS011;59479;51.902;8.212;2023-02-28T04:03:49;9.23;;;3.72;;
71629;SDS011;59479;51.902;8.212;2023-02-28T04:06:16;6.93;;;4.15;;
71629;SDS011;59479;51.902;8.212;2023-02-28T04:08:43;7.32;;;3.38;;
71629;SDS011;59479;51.902;8.212;2023-02-28T04:11:16;5.60;;;3.00;;
71629;SDS011;59479;51.902;8.212;2023-02-28T04:13:45;6.90;;;3.85;;
71629;SDS011;59479;51.902;8.212;2023-02-28T04:16:11;8.60;;;3.83;;
71629;SDS011;59479;51.902;8.212;2023-02-28T04:18:36;6.23;;;3.23;;
71629;SDS011;59479;51.902;8.212;2023-02-28T04:21:05;6.57;;;3.17;;
71629;SDS011;59479;51.902;8.212;2023-02-28T04:23:31;8.75;;;4.13;;
71629;SDS011;59479;51.902;8.212;2023-02-28T04:25:56;8.33;;;3.80;;
71629;SDS011;59479;51.902;8.212;2023-02-28T04:28:22;7.00;;;3.73;;
71629;SDS011;59479;51.902;8.212;2023-02-28T04:30:47;7.68;;;3.20;;
71629;SDS011;59479;51.902;8.212;2023-02-28T04:33:13;5.97;;;3.40;;
71629;SDS011;59479;51.902;8.212;2023-02-28T04:35:38;5.60;;;3.47;;
71629;SDS011;59479;51.902;8.212;2023-02-28T04:38:03;6.30;;;3.23;;
71629;SDS011;59479;51.902;8.212;2023-02-28T04:40:29;5.70;;;3.53;;
71629;SDS011;59479;51.902;8.212;2023-02-28T04:42:54;8.67;;;3.60;;
71629;SDS011;59479;51.902;8.212;2023-02-28T04:45:19;5.17;;;3.57;;
71629;SDS011;59479;51.902;8.212;2023-02-28T04:47:45;5.30;;;3.40;;
71629;SDS011;59479;51.902;8.212;2023-02-28T04:50:10;6.80;;;3.90;;
71629;SDS011;59479;51.902;8.212;2023-02-28T04:52:35;6.97;;;4.05;;
71629;SDS011;59479;51.902;8.212;2023-02-28T04:55:01;6.60;;;3.73;;
71629;SDS011;59479;51.902;8.212;2023-02-28T04:57:26;7.67;;;3.80;;
71629;SDS011;59479;51.902;8.212;2023-02-28T04:59:52;8.53;;;4.17;;
71629;SDS011;59479;51.902;8.212;2023-02-28T05:02:17;6.15;;;3.83;;
71629;SDS011;59479;51.902;8.212;2023-02-28T05:04:42;5.97;;;3.40;;
71629;SDS011;59479;51.902;8.212;2023-02-28T05:07:08;7.10;;;3.90;;
71629;SDS011;59479;51.902;8.212;2023-02-28T05:09:34;6.95;;;3.60;;
71629;SDS011;59479;51.902;8.212;2023-02-28T05:11:59;7.07;;;4.70;;
71629;SDS011;59479;51.902;8.212;2023-02-28T05:14:25;5.80;;;3.83;;
71629;SDS011;59479;51.902;8.212;2023-02-28T05:16:50;7.43;;;3.97;;
71629;SDS011;59479;51.902;8.212;2023-02-28T05:19:15;9.20;;;4.73;;
71629;SDS011;59479;51.902;8.212;2023-02-28T05:21:41;6.67;;;3.93;;
71629;SDS011;59479;51.902;8.212;2023-02-28T05:24:17;7.55;;;3.80;;
71629;SDS011;59479;51.902;8.212;2023-02-28T05:26:47;6.25;;;3.75;;
71629;SDS011;59479;51.902;8.212;2023-02-28T05:29:13;8.73;;;4.30;;
71629;SDS011;59479;51.902;8.212;2023-02-28T05:31:38;9.93;;;4.03;;
71629;SDS011;59479;51.902;8.212;2023-02-28T05:34:04;6.30;;;3.67;;
71629;SDS011;59479;51.902;8.212;2023-02-28T05:36:29;7.30;;;3.97;;
71629;SDS011;59479;51.902;8.212;2023-02-28T05:38:55;8.80;;;4.35;;
71629;SDS011;59479;51.902;8.212;2023-02-28T05:41:21;6.80;;;3.40;;
71629;SDS011;59479;51.902;8.212;2023-02-28T05:43:47;8.83;;;4.20;;
71629;SDS011;59479;51.902;8.212;2023-02-28T05:46:13;6.68;;;4.30;;
71629;SDS011;59479;51.902;8.212;2023-02-28T05:48:39;8.90;;;4.28;;
71629;SDS011;59479;51.902;8.212;2023-02-28T05:51:06;7.07;;;4.03;;
71629;SDS011;59479;51.902;8.212;2023-02-28T05:53:32;7.43;;;3.97;;
71629;SDS011;59479;51.902;8.212;2023-02-28T05:55:58;8.07;;;3.58;;
71629;SDS011;59479;51.902;8.212;2023-02-28T05:58:24;7.60;;;4.10;;
71629;SDS011;59479;51.902;8.212;2023-02-28T06:00:54;6.40;;;3.58;;
71629;SDS011;59479;51.902;8.212;2023-02-28T06:03:19;7.20;;;4.10;;
71629;SDS011;59479;51.902;8.212;2023-02-28T06:05:44;6.35;;;3.65;;
71629;SDS011;59479;51.902;8.212;2023-02-28T06:08:10;6.57;;;3.90;;
71629;SDS011;59479;51.902;8.212;2023-02-28T06:10:35;8.70;;;4.27;;
71629;SDS011;59479;51.902;8.212;2023-02-28T06:13:01;7.17;;;4.30;;
71629;SDS011;59479;51.902;8.212;2023-02-28T06:15:27;8.77;;;4.00;;
71629;SDS011;59479;51.902;8.212;2023-02-28T06:17:53;6.90;;;3.80;;
71629;SDS011;59479;51.902;8.212;2023-02-28T06:20:19;6.82;;;3.90;;
71629;SDS011;59479;51.902;8.212;2023-02-28T06:22:44;6.50;;;3.67;;
71629;SDS011;59479;51.902;8.212;2023-02-28T06:25:09;7.93;;;3.83;;
71629;SDS011;59479;51.902;8.212;2023-02-28T06:27:35;8.82;;;4.35;;
71629;SDS011;59479;51.902;8.212;2023-02-28T06:30:01;7.90;;;4.53;;
71629;SDS011;59479;51.902;8.212;2023-02-28T06:32:26;7.23;;;3.77;;
71629;SDS011;59479;51.902;8.212;2023-02-28T06:34:52;6.63;;;4.00;;
71629;SDS011;59479;51.902;8.212;2023-02-28T06:37:17;9.52;;;4.78;;
71629;SDS011;59479;51.902;8.212;2023-02-28T06:39:43;9.47;;;4.23;;
71629;SDS011;59479;51.902;8.212;2023-02-28T06:42:08;7.35;;;4.05;;
71629;SDS011;59479;51.902;8.212;2023-02-28T06:44:34;7.90;;;4.00;;
71629;SDS011;59479;51.902;8.212;2023-02-28T06:47:03;7.53;;;4.33;;
71629;SDS011;59479;51.902;8.212;2023-02-28T06:49:30;7.85;;;4.28;;
71629;SDS011;59479;51.902;8.212;2023-02-28T06:51:57;7.15;;;4.13;;
71629;SDS011;59479;51.902;8.212;2023-02-28T06:54:22;7.50;;;3.67;;
71629;SDS011;59479;51.902;8.212;2023-02-28T06:56:48;7.37;;;3.87;;
71629;SDS011;59479;51.902;8.212;2023-02-28T06:59:13;7.28;;;3.85;;
71629;SDS011;59479;51.902;8.212;2023-02-28T07:01:39;8.13;;;3.63;;
71629;SDS011;59479;51.902;8.212;2023-02-28T07:04:05;8.90;;;3.63;;
71629;SDS011;59479;51.902;8.212;2023-02-28T07:06:31;5.80;;;3.58;;
71629;SDS011;59479;51.902;8.212;2023-02-28T07:08:57;6.63;;;3.80;;
71629;SDS011;59479;51.902;8.212;2023-02-28T07:11:23;6.37;;;4.17;;
71629;SDS011;59479;51.902;8.212;2023-02-28T07:13:51;6.15;;;4.07;;
71629;SDS011;59479;51.902;8.212;2023-02-28T07:16:17;7.32;;;3.45;;
71629;SDS011;59479;51.902;8.212;2023-02-28T07:18:42;7.57;;;4.33;;
71629;SDS011;59479;51.902;8.212;2023-02-28T07:21:09;9.30;;;4.73;;
71629;SDS011;59479;51.902;8.212;2023-02-28T07:23:35;7.15;;;4.57;;
71629;SDS011;59479;51.902;8.212;2023-02-28T07:26:03;6.30;;;3.65;;
71629;SDS011;59479;51.902;8.212;2023-02-28T07:28:28;7.30;;;4.17;;
71629;SDS011;59479;51.902;8.212;2023-02-28T07:30:54;8.97;;;3.90;;
71629;SDS011;59479;51.902;8.212;2023-02-28T07:33:19;8.25;;;4.18;;
71629;SDS011;59479;51.902;8.212;2023-02-28T07:35:44;9.37;;;4.30;;
71629;SDS011;59479;51.902;8.212;2023-02-28T07:38:10;8.03;;;4.67;;
71629;SDS011;59479;51.902;8.212;2023-02-28T07:40:36;9.90;;;4.80;;
71629;SDS011;59479;51.902;8.212;2023-02-28T07:43:02;9.30;;;4.70;;
71629;SDS011;59479;51.902;8.212;2023-02-28T07:45:28;8.77;;;4.78;;
71629;SDS011;59479;51.902;8.212;2023-02-28T07:47:54;8.20;;;4.60;;
71629;SDS011;59479;51.902;8.212;2023-02-28T07:50:20;8.20;;;4.37;;
71629;SDS011;59479;51.902;8.212;2023-02-28T07:52:45;10.93;;;5.60;;
71629;SDS011;59479;51.902;8.212;2023-02-28T07:55:11;9.57;;;4.90;;
71629;SDS011;59479;51.902;8.212;2023-02-28T07:57:36;9.10;;;5.13;;
71629;SDS011;59479;51.902;8.212;2023-02-28T08:00:05;11.20;;;5.23;;
71629;SDS011;59479;51.902;8.212;2023-02-28T08:02:34;9.45;;;5.30;;
71629;SDS011;59479;51.902;8.212;2023-02-28T08:04:59;8.60;;;4.70;;
71629;SDS011;59479;51.902;8.212;2023-02-28T08:07:25;10.27;;;5.23;;
71629;SDS011;59479;51.902;8.212;2023-02-28T08:09:50;9.33;;;4.60;;
71629;SDS011;59479;51.902;8.212;2023-02-28T08:12:15;10.23;;;5.50;;
71629;SDS011;59479;51.902;8.212;2023-02-28T08:14:41;9.13;;;4.57;;
71629;SDS011;59479;51.902;8.212;2023-02-28T08:17:06;10.60;;;4.40;;
71629;SDS011;59479;51.902;8.212;2023-02-28T08:19:31;7.65;;;3.92;;
71629;SDS011;59479;51.902;8.212;2023-02-28T08:21:57;8.70;;;4.37;;
71629;SDS011;59479;51.902;8.212;2023-02-28T08:24:23;6.97;;;3.53;;
71629;SDS011;59479;51.902;8.212;2023-02-28T08:26:48;7.43;;;3.83;;
71629;SDS011;59479;51.902;8.212;2023-02-28T08:29:14;7.17;;;3.40;;
71629;SDS011;59479;51.902;8.212;2023-02-28T08:31:39;5.47;;;3.33;;
71629;SDS011;59479;51.902;8.212;2023-02-28T08:34:09;5.47;;;2.83;;
71629;SDS011;59479;51.902;8.212;2023-02-28T08:36:37;5.80;;;3.35;;
71629;SDS011;59479;51.902;8.212;2023-02-28T08:39:03;5.85;;;3.30;;
71629;SDS011;59479;51.902;8.212;2023-02-28T08:41:29;6.13;;;3.47;;
71629;SDS011;59479;51.902;8.212;2023-02-28T08:43:54;8.60;;;3.10;;
71629;SDS011;59479;51.902;8.212;2023-02-28T08:46:19;4.75;;;3.05;;
71629;SDS011;59479;51.902;8.212;2023-02-28T08:48:45;5.67;;;2.73;;
71629;SDS011;59479;51.902;8.212;2023-02-28T08:51:12;7.17;;;2.80;;
71629;SDS011;59479;51.902;8.212;2023-02-28T08:53:39;5.20;;;3.00;;
71629;SDS011;59479;51.902;8.212;2023-02-28T08:56:09;5.93;;;3.45;;
71629;SDS011;59479;51.902;8.212;2023-02-28T08:58:37;4.88;;;2.95;;
71629;SDS011;59479;51.902;8.212;2023-02-28T09:01:35;5.97;;;2.90;;
71629;SDS011;59479;51.902;8.212;2023-02-28T09:03:55;5.93;;;3.22;;
71629;SDS011;59479;51.902;8.212;2023-02-28T09:06:21;5.80;;;3.07;;
71629;SDS011;59479;51.902;8.212;2023-02-28T09:08:48;5.00;;;2.83;;
71629;SDS011;59479;51.902;8.212;2023-02-28T09:11:14;5.53;;;2.80;;
71629;SDS011;59479;51.902;8.212;2023-02-28T09:13:39;5.20;;;2.50;;
71629;SDS011;59479;51.902;8.212;2023-02-28T09:16:06;5.80;;;2.60;;
71629;SDS011;59479;51.902;8.212;2023-02-28T09:18:34;5.60;;;3.00;;
71629;SDS011;59479;51.902;8.212;2023-02-28T09:21:04;5.07;;;2.95;;
71629;SDS011;59479;51.902;8.212;2023-02-28T09:23:33;4.25;;;2.97;;
71629;SDS011;59479;51.902;8.212;2023-02-28T09:25:59;4.37;;;2.23;;
71629;SDS011;59479;51.902;8.212;2023-02-28T09:28:25;4.67;;;2.47;;
71629;SDS011;59479;51.902;8.212;2023-02-28T09:30:51;4.70;;;2.55;;
71629;SDS011;59479;51.902;8.212;2023-02-28T09:33:19;4.90;;;2.70;;
71629;SDS011;59479;51.902;8.212;2023-02-28T09:35:46;4.75;;;2.38;;
71629;SDS011;59479;51.902;8.212;2023-02-28T09:38:15;6.20;;;2.97;;
71629;SDS011;59479;51.902;8.212;2023-02-28T09:40:51;6.40;;;2.78;;
71629;SDS011;59479;51.902;8.212;2023-02-28T09:43:20;5.63;;;2.95;;
71629;SDS011;59479;51.902;8.212;2023-02-28T09:45:49;5.17;;;3.00;;
71629;SDS011;59479;51.902;8.212;2023-02-28T09:48:25;5.20;;;2.67;;
71629;SDS011;59479;51.902;8.212;2023-02-28T09:51:01;5.65;;;2.30;;
71629;SDS011;59479;51.902;8.212;2023-02-28T09:53:29;4.38;;;2.67;;
71629;SDS011;59479;51.902;8.212;2023-02-28T09:55:59;4.57;;;2.42;;
71629;SDS011;59479;51.902;8.212;2023-02-28T09:58:44;4.07;;;2.27;;
71629;SDS011;59479;51.902;8.212;2023-02-28T10:04:08;5.05;;;2.60;;
71629;SDS011;59479;51.902;8.212;2023-02-28T10:06:45;4.68;;;2.45;;
71629;SDS011;59479;51.902;8.212;2023-02-28T10:09:23;3.80;;;2.40;;
71629;SDS011;59479;51.902;8.212;2023-02-28T10:11:54;5.10;;;2.50;;
71629;SDS011;59479;51.902;8.212;2023-02-28T10:14:25;5.82;;;2.33;;
71629;SDS011;59479;51.902;8.212;2023-02-28T10:16:56;5.28;;;2.08;;
71629;SDS011;59479;51.902;8.212;2023-02-28T10:22:01;4.93;;;2.00;;
71629;SDS011;59479;51.902;8.212;2023-02-28T10:24:50;4.13;;;2.50;;
71629;SDS011;59479;51.902;8.212;2023-02-28T10:27:18;4.93;;;2.50;;
71629;SDS011;59479;51.902;8.212;2023-02-28T10:29:53;4.43;;;2.58;;
71629;SDS011;59479;51.902;8.212;2023-02-28T10:32:22;3.85;;;2.20;;
71629;SDS011;59479;51.902;8.212;2023-02-28T10:34:53;3.35;;;2.20;;
71629;SDS011;59479;51.902;8.212;2023-02-28T10:37:24;5.43;;;2.63;;
71629;SDS011;59479;51.902;8.212;2023-02-28T10:39:49;6.50;;;2.58;;
71629;SDS011;59479;51.902;8.212;2023-02-28T10:42:21;3.90;;;2.10;;
71629;SDS011;59479;51.902;8.212;2023-02-28T10:45:03;4.30;;;2.70;;
71629;SDS011;59479;51.902;8.212;2023-02-28T10:47:31;7.63;;;2.88;;
71629;SDS011;59479;51.902;8.212;2023-02-28T10:49:59;4.63;;;2.42;;
71629;SDS011;59479;51.902;8.212;2023-02-28T10:52:32;4.57;;;2.50;;
71629;SDS011;59479;51.902;8.212;2023-02-28T10:57:48;6.85;;;3.08;;
71629;SDS011;59479;51.902;8.212;2023-02-28T11:00:24;4.40;;;2.42;;
71629;SDS011;59479;51.902;8.212;2023-02-28T11:02:50;5.50;;;2.80;;
71629;SDS011;59479;51.902;8.212;2023-02-28T11:05:33;7.05;;;2.58;;
71629;SDS011;59479;51.902;8.212;2023-02-28T11:08:14;4.25;;;2.58;;
71629;SDS011;59479;51.902;8.212;2023-02-28T11:10:47;3.92;;;2.35;;
71629;SDS011;59479;51.902;8.212;2023-02-28T11:13:20;4.47;;;2.57;;
71629;SDS011;59479;51.902;8.212;2023-02-28T11:15:51;5.25;;;2.45;;
71629;SDS011;59479;51.902;8.212;2023-02-28T11:20:51;4.70;;;2.60;;
71629;SDS011;59479;51.902;8.212;2023-02-28T11:23:19;5.30;;;2.30;;
71629;SDS011;59479;51.902;8.212;2023-02-28T11:25:50;4.53;;;2.23;;
71629;SDS011;59479;51.902;8.212;2023-02-28T11:28:34;5.38;;;2.55;;
71629;SDS011;59479;51.902;8.212;2023-02-28T11:33:31;4.97;;;2.17;;
71629;SDS011;59479;51.902;8.212;2023-02-28T11:36:09;7.07;;;2.67;;
71629;SDS011;59479;51.902;8.212;2023-02-28T11:38:37;5.33;;;2.27;;
71629;SDS011;59479;51.902;8.212;2023-02-28T11:41:50;4.50;;;2.20;;
71629;SDS011;59479;51.902;8.212;2023-02-28T11:44:16;5.88;;;2.08;;
71629;SDS011;59479;51.902;8.212;2023-02-28T11:46:46;4.37;;;2.50;;
71629;SDS011;59479;51.902;8.212;2023-02-28T11:49:30;5.07;;;2.60;;
71629;SDS011;59479;51.902;8.212;2023-02-28T12:05:50;4.00;;;1.77;;
71629;SDS011;59479;51.902;8.212;2023-02-28T12:11:34;5.20;;;2.42;;
71629;SDS011;59479;51.902;8.212;2023-02-28T12:14:20;5.80;;;2.40;;
71629;SDS011;59479;51.902;8.212;2023-02-28T12:16:57;8.25;;;3.20;;
71629;SDS011;59479;51.902;8.212;2023-02-28T12:22:29;6.40;;;2.80;;
71629;SDS011;59479;51.902;8.212;2023-02-28T12:25:10;6.60;;;2.40;;
71629;SDS011;59479;51.902;8.212;2023-02-28T12:27:48;7.67;;;3.13;;
71629;SDS011;59479;51.902;8.212;2023-02-28T12:30:17;4.88;;;2.65;;
71629;SDS011;59479;51.902;8.212;2023-02-28T12:32:48;6.30;;;2.60;;
71629;SDS011;59479;51.902;8.212;2023-02-28T12:35:19;5.10;;;2.50;;
71629;SDS011;59479;51.902;8.212;2023-02-28T12:37:51;4.32;;;2.70;;
71629;SDS011;59479;51.902;8.212;2023-02-28T12:40:23;4.83;;;2.23;;
71629;SDS011;59479;51.902;8.212;2023-02-28T12:45:39;5.55;;;2.78;;
71629;SDS011;59479;51.902;8.212;2023-02-28T12:48:38;7.63;;;2.85;;
71629;SDS011;59479;51.902;8.212;2023-02-28T12:51:05;10.02;;;3.80;;
71629;SDS011;59479;51.902;8.212;2023-02-28T12:56:38;6.72;;;2.83;;
71629;SDS011;59479;51.902;8.212;2023-02-28T13:02:02;5.70;;;2.95;;
71629;SDS011;59479;51.902;8.212;2023-02-28T13:07:46;7.17;;;3.53;;
71629;SDS011;59479;51.902;8.212;2023-02-28T13:10:44;5.00;;;2.80;;
71629;SDS011;59479;51.902;8.212;2023-02-28T13:13:15;5.30;;;2.72;;
71629;SDS011;59479;51.902;8.212;2023-02-28T13:15:56;5.85;;;2.92;;
71629;SDS011;59479;51.902;8.212;2023-02-28T13:20:55;5.60;;;2.83;;
71629;SDS011;59479;51.902;8.212;2023-02-28T13:24:08;4.75;;;2.70;;
71629;SDS011;59479;51.902;8.212;2023-02-28T13:26:12;5.78;;;2.80;;
71629;SDS011;59479;51.902;8.212;2023-02-28T13:28:57;6.38;;;2.67;;
71629;SDS011;59479;51.902;8.212;2023-02-28T13:31:24;5.45;;;3.22;;
71629;SDS011;59479;51.902;8.212;2023-02-28T13:38:46;5.27;;;3.17;;
71629;SDS011;59479;51.902;8.212;2023-02-28T13:47:15;4.95;;;2.80;;
71629;SDS011;59479;51.902;8.212;2023-02-28T13:51:50;4.63;;;2.30;;
71629;SDS011;59479;51.902;8.212;2023-02-28T13:57:33;6.57;;;3.10;;
71629;SDS011;59479;51.902;8.212;2023-02-28T14:05:31;6.45;;;2.72;;
71629;SDS011;59479;51.902;8.212;2023-02-28T14:07:59;8.13;;;3.07;;
71629;SDS011;59479;51.902;8.212;2023-02-28T14:10:31;5.57;;;3.10;;
71629;SDS011;59479;51.902;8.212;2023-02-28T14:13:12;6.68;;;3.35;;
71629;SDS011;59479;51.902;8.212;2023-02-28T14:18:30;6.70;;;3.63;;
71629;SDS011;59479;51.902;8.212;2023-02-28T14:24:20;4.47;;;2.80;;
71629;SDS011;59479;51.902;8.212;2023-02-28T14:38:13;4.95;;;2.65;;
71629;SDS011;59479;51.902;8.212;2023-02-28T14:40:43;4.45;;;2.50;;
71629;SDS011;59479;51.902;8.212;2023-02-28T14:43:24;5.32;;;2.88;;
71629;SDS011;59479;51.902;8.212;2023-02-28T14:45:51;6.28;;;3.30;;
71629;SDS011;59479;51.902;8.212;2023-02-28T14:48:25;5.53;;;2.83;;
71629;SDS011;59479;51.902;8.212;2023-02-28T14:50:52;4.78;;;2.95;;
71629;SDS011;59479;51.902;8.212;2023-02-28T14:53:21;6.03;;;3.15;;
71629;SDS011;59479;51.902;8.212;2023-02-28T14:55:48;5.32;;;3.60;;
71629;SDS011;59479;51.902;8.212;2023-02-28T14:58:21;4.78;;;2.78;;
71629;SDS011;59479;51.902;8.212;2023-02-28T15:00:48;5.83;;;3.07;;
71629;SDS011;59479;51.902;8.212;2023-02-28T15:03:27;5.35;;;2.85;;
71629;SDS011;59479;51.902;8.212;2023-02-28T15:06:03;7.03;;;3.33;;
71629;SDS011;59479;51.902;8.212;2023-02-28T15:09:06;5.15;;;2.97;;
71629;SDS011;59479;51.902;8.212;2023-02-28T15:11:36;6.68;;;3.05;;
71629;SDS011;59479;51.902;8.212;2023-02-28T15:14:03;6.93;;;3.30;;
71629;SDS011;59479;51.902;8.212;2023-02-28T15:16:36;7.70;;;3.17;;
71629;SDS011;59479;51.902;8.212;2023-02-28T15:19:11;6.00;;;3.40;;
71629;SDS011;59479;51.902;8.212;2023-02-28T15:21:48;5.65;;;3.20;;
71629;SDS011;59479;51.902;8.212;2023-02-28T15:27:03;6.15;;;3.20;;
71629;SDS011;59479;51.902;8.212;2023-02-28T15:29:33;5.95;;;3.33;;
71629;SDS011;59479;51.902;8.212;2023-02-28T15:32:18;5.93;;;2.75;;
71629;SDS011;59479;51.902;8.212;2023-02-28T15:34:48;4.55;;;3.00;;
71629;SDS011;59479;51.902;8.212;2023-02-28T15:39:58;4.97;;;3.30;;
71629;SDS011;59479;51.902;8.212;2023-02-28T15:51:18;5.28;;;3.10;;
71629;SDS011;59479;51.902;8.212;2023-02-28T15:54:00;5.77;;;3.20;;
71629;SDS011;59479;51.902;8.212;2023-02-28T15:56:31;5.75;;;2.92;;
71629;SDS011;59479;51.902;8.212;2023-02-28T15:58:58;5.80;;;3.22;;
71629;SDS011;59479;51.902;8.212;2023-02-28T16:01:30;5.60;;;3.05;;
71629;SDS011;59479;51.902;8.212;2023-02-28T16:03:59;4.88;;;2.95;;
71629;SDS011;59479;51.902;8.212;2023-02-28T16:06:40;11.67;;;3.70;;
71629;SDS011;59479;51.902;8.212;2023-02-28T16:09:10;6.72;;;3.17;;
71629;SDS011;59479;51.902;8.212;2023-02-28T16:11:39;7.10;;;3.38;;
71629;SDS011;59479;51.902;8.212;2023-02-28T16:14:11;5.18;;;3.13;;
71629;SDS011;59479;51.902;8.212;2023-02-28T16:16:48;5.63;;;3.33;;
71629;SDS011;59479;51.902;8.212;2023-02-28T16:19:18;6.13;;;3.03;;
71629;SDS011;59479;51.902;8.212;2023-02-28T16:21:44;6.53;;;3.55;;
71629;SDS011;59479;51.902;8.212;2023-02-28T16:24:10;6.00;;;3.50;;
71629;SDS011;59479;51.902;8.212;2023-02-28T16:26:35;5.67;;;3.63;;
71629;SDS011;59479;51.902;8.212;2023-02-28T16:29:04;4.93;;;3.17;;
71629;SDS011;59479;51.902;8.212;2023-02-28T16:31:30;6.95;;;3.05;;
71629;SDS011;59479;51.902;8.212;2023-02-28T16:33:59;6.03;;;3.53;;
71629;SDS011;59479;51.902;8.212;2023-02-28T16:36:25;7.03;;;3.33;;
71629;SDS011;59479;51.902;8.212;2023-02-28T16:38:50;6.70;;;3.50;;
71629;SDS011;59479;51.902;8.212;2023-02-28T16:41:17;5.90;;;3.60;;
71629;SDS011;59479;51.902;8.212;2023-02-28T16:43:47;6.05;;;2.95;;
71629;SDS011;59479;51.902;8.212;2023-02-28T16:46:14;5.03;;;2.75;;
71629;SDS011;59479;51.902;8.212;2023-02-28T16:48:41;6.00;;;3.00;;
71629;SDS011;59479;51.902;8.212;2023-02-28T16:51:13;4.67;;;3.13;;
71629;SDS011;59479;51.902;8.212;2023-02-28T16:53:40;5.00;;;3.22;;
71629;SDS011;59479;51.902;8.212;2023-02-28T16:56:05;5.87;;;3.13;;
71629;SDS011;59479;51.902;8.212;2023-02-28T16:58:32;4.93;;;3.17;;
71629;SDS011;59479;51.902;8.212;2023-02-28T17:01:00;5.70;;;3.10;;
71629;SDS011;59479;51.902;8.212;2023-02-28T17:03:27;6.63;;;3.25;;
71629;SDS011;59479;51.902;8.212;2023-02-28T17:05:53;5.65;;;3.30;;
71629;SDS011;59479;51.902;8.212;2023-02-28T17:08:18;4.77;;;3.10;;
71629;SDS011;59479;51.902;8.212;2023-02-28T17:10:44;5.73;;;3.80;;